Columbus, Ohio
Traffic Map
Current Weather Conditions
Columbus, Ohio
Few Clouds
Few Clouds
23°
Feels Like: 23°
Wind Chill: 23° Ceiling: Unl
Heat Index: 23° Visibility: 9mi
Dew Point: 22° Wind: 0mph
Humidity: 93% Direction: ° ()
Pressure: 30.13in Gusts: 0mph
Raw Report DataKCMH 261151Z 00000KT 9SM FEW060 23/22 A3013 RMK AO2 SLP195 70003 T02280217 10233 20217 53009
Traffic Incident Summary
Active as of:
Severity:
Category:
InformationThere was an issue retrieving the traffic information for this location. Please try a different location or try again shortly.
Advertisements
Track Severe Weather on mobile